Time;durP1;ratioP1;P1;durP2;ratioP2;P2;SDS_P1;SDS_P2;PMS_P1;PMS_P2;Temp;Humidity;BMP_temperature;BMP_pressure;BME280_temperature;BME280_humidity;BME280_pressure;Samples;Min_cycle;Max_cycle;Signal;HPM_P1;HPM_P2
2022/03/09 00:01:12;;;;;;;27.40;13.40;;;-2.40;49.70;;;;;;5068048;28;20229;-59
2022/03/09 00:03:38;;;;;;;23.67;11.93;;;-2.50;49.80;;;;;;5066119;28;20433;-57
2022/03/09 00:06:04;;;;;;;25.30;11.60;;;-2.50;50.10;;;;;;5089517;28;20513;-59
2022/03/09 00:08:29;;;;;;;28.93;13.00;;;-2.60;50.20;;;;;;5073090;28;20182;-58
2022/03/09 00:10:55;;;;;;;22.87;12.33;;;-2.60;50.30;;;;;;5079848;28;20525;-58
2022/03/09 00:13:20;;;;;;;29.67;14.90;;;-2.60;50.40;;;;;;5068521;28;20267;-58
2022/03/09 00:15:46;;;;;;;29.23;13.23;;;-2.60;50.30;;;;;;5070206;28;20228;-58
2022/03/09 00:18:12;;;;;;;23.47;13.10;;;-2.60;50.40;;;;;;5069347;28;20196;-58
2022/03/09 00:20:37;;;;;;;30.33;13.80;;;-2.60;50.60;;;;;;5059231;28;20566;-58
2022/03/09 00:23:03;;;;;;;31.40;13.33;;;-2.60;50.60;;;;;;5070148;28;20597;-58
2022/03/09 00:25:31;;;;;;;23.80;12.27;;;-2.60;50.70;;;;;;5072310;28;20651;-59
2022/03/09 00:27:57;;;;;;;26.23;13.13;;;-2.60;50.80;;;;;;5072405;28;20184;-58
2022/03/09 00:30:23;;;;;;;22.80;12.67;;;-2.60;50.80;;;;;;5074688;28;20939;-58
2022/03/09 00:32:49;;;;;;;33.27;13.53;;;-2.60;50.70;;;;;;5054405;28;20509;-57
2022/03/09 00:35:15;;;;;;;25.40;13.80;;;-2.60;50.60;;;;;;5091079;28;20453;-59
2022/03/09 00:37:40;;;;;;;28.60;13.80;;;-2.70;50.50;;;;;;5063416;28;20222;-60
2022/03/09 00:40:06;;;;;;;33.90;14.57;;;-2.70;50.50;;;;;;5058518;28;20247;-59
2022/03/09 00:42:37;;;;;;;27.37;13.20;;;-2.70;50.60;;;;;;5061636;28;20186;-58
2022/03/09 00:45:04;;;;;;;27.60;13.73;;;-2.80;50.60;;;;;;5068575;28;20456;-58
2022/03/09 00:47:29;;;;;;;29.07;13.10;;;-2.80;50.80;;;;;;5069808;28;20494;-58
2022/03/09 00:49:55;;;;;;;21.50;12.40;;;-2.80;50.90;;;;;;5070811;28;20414;-59
2022/03/09 00:52:20;;;;;;;24.30;11.30;;;-2.90;50.80;;;;;;5058747;28;20178;-59
2022/03/09 00:54:47;;;;;;;26.53;12.20;;;-2.90;51.00;;;;;;5071440;28;20176;-58
2022/03/09 00:57:15;;;;;;;24.20;12.40;;;-2.90;51.20;;;;;;5059406;28;20224;-59
2022/03/09 00:59:41;;;;;;;27.23;12.20;;;-3.00;51.20;;;;;;5066167;28;20507;-59
2022/03/09 01:02:07;;;;;;;25.73;12.37;;;-3.10;51.30;;;;;;5062279;28;20533;-57
2022/03/09 01:04:36;;;;;;;29.87;11.90;;;-3.10;51.50;;;;;;5072053;28;20166;-59
2022/03/09 01:07:03;;;;;;;25.50;12.20;;;-3.10;51.70;;;;;;5082080;28;20936;-60
2022/03/09 01:09:29;;;;;;;23.77;11.77;;;-3.10;51.80;;;;;;5062990;28;20423;-58
2022/03/09 01:11:55;;;;;;;22.50;11.70;;;-3.10;51.80;;;;;;5058096;28;20484;-58
2022/03/09 01:14:20;;;;;;;29.87;13.87;;;-3.10;51.80;;;;;;5058550;28;20180;-59
2022/03/09 01:16:46;;;;;;;27.40;12.40;;;-3.20;51.80;;;;;;5070199;28;20449;-59
2022/03/09 01:19:12;;;;;;;28.90;13.10;;;-3.10;51.90;;;;;;5064845;28;20173;-58
2022/03/09 01:21:37;;;;;;;26.80;12.83;;;-3.10;52.00;;;;;;5051407;28;20164;-59
2022/03/09 01:24:03;;;;;;;30.50;13.33;;;-3.10;52.10;;;;;;5057546;28;20223;-58
2022/03/09 01:26:32;;;;;;;27.33;12.30;;;-3.10;52.10;;;;;;5070625;28;20241;-58
2022/03/09 01:28:58;;;;;;;18.90;11.23;;;-3.10;52.10;;;;;;5075707;28;20832;-58
2022/03/09 01:31:23;;;;;;;25.60;12.80;;;-3.10;52.20;;;;;;5062433;28;20521;-58
2022/03/09 01:33:49;;;;;;;22.20;11.80;;;-3.20;52.10;;;;;;5073775;28;20273;-58
2022/03/09 01:36:15;;;;;;;29.70;13.37;;;-3.10;52.20;;;;;;5070822;28;20249;-59
2022/03/09 01:38:41;;;;;;;31.53;13.27;;;-3.10;52.20;;;;;;5067243;28;20462;-58
2022/03/09 01:41:07;;;;;;;24.43;12.00;;;-3.10;52.20;;;;;;5063973;28;20175;-58
2022/03/09 01:43:32;;;;;;;23.77;13.17;;;-3.20;52.00;;;;;;5078771;28;20914;-57
2022/03/09 01:45:58;;;;;;;29.27;13.23;;;-3.20;52.10;;;;;;5062195;28;20203;-59
2022/03/09 01:48:24;;;;;;;26.23;12.30;;;-3.20;52.10;;;;;;5056425;28;20650;-57
2022/03/09 01:50:50;;;;;;;25.73;12.20;;;-3.20;52.10;;;;;;5069121;28;20205;-58
2022/03/09 01:53:18;;;;;;;23.43;12.20;;;-3.30;52.00;;;;;;5067680;28;20172;-58
2022/03/09 01:55:44;;;;;;;26.70;12.17;;;-3.40;52.00;;;;;;5072708;28;20632;-57
2022/03/09 01:58:10;;;;;;;24.63;11.50;;;-3.40;52.20;;;;;;5065384;28;20998;-58
2022/03/09 02:00:35;;;;;;;26.80;12.30;;;-3.40;52.30;;;;;;5057686;28;20409;-57
2022/03/09 02:03:02;;;;;;;29.17;13.33;;;-3.40;52.60;;;;;;5059306;28;20180;-56
2022/03/09 02:05:27;;;;;;;28.80;12.13;;;-3.50;52.60;;;;;;5065075;28;20557;-57
2022/03/09 02:10:38;;;;;;;25.87;11.57;;;-3.50;53.30;;;;;;5069300;28;20222;-58
2022/03/09 02:13:04;;;;;;;25.77;12.00;;;-3.50;52.70;;;;;;5085325;28;20810;-57
2022/03/09 02:15:30;;;;;;;27.50;12.90;;;-3.50;52.70;;;;;;5067983;28;20452;-58
2022/03/09 02:17:56;;;;;;;25.07;12.13;;;-3.50;52.70;;;;;;5071489;28;20184;-58
2022/03/09 02:20:21;;;;;;;23.60;12.07;;;-3.50;52.80;;;;;;5059570;28;20183;-57
2022/03/09 02:22:47;;;;;;;22.67;10.97;;;-3.60;52.80;;;;;;5084126;28;20408;-58
2022/03/09 02:25:15;;;;;;;25.50;12.97;;;-3.60;52.90;;;;;;5064198;28;20199;-58
2022/03/09 02:27:42;;;;;;;21.37;11.63;;;-3.60;52.90;;;;;;5068979;28;20196;-58
2022/03/09 02:30:11;;;;;;;28.57;12.70;;;-3.60;53.00;;;;;;5085148;28;20394;-58
2022/03/09 02:32:41;;;;;;;28.10;12.40;;;-3.70;53.00;;;;;;5069184;28;20519;-57
2022/03/09 02:35:09;;;;;;;28.33;12.70;;;-3.70;53.10;;;;;;5070717;28;20447;-58
2022/03/09 02:37:35;;;;;;;23.63;11.83;;;-3.70;53.20;;;;;;5066267;28;20451;-58
2022/03/09 02:40:00;;;;;;;21.60;12.23;;;-3.70;53.30;;;;;;5070064;28;20983;-58
2022/03/09 02:42:26;;;;;;;27.53;12.67;;;-3.70;53.40;;;;;;5067683;28;20562;-59
2022/03/09 02:44:52;;;;;;;21.93;11.90;;;-3.70;53.40;;;;;;5065442;28;20172;-58
2022/03/09 02:47:18;;;;;;;26.23;11.27;;;-3.80;53.30;;;;;;5063331;28;20175;-59
2022/03/09 02:49:43;;;;;;;25.77;12.80;;;-3.70;53.40;;;;;;5055210;28;20440;-58
2022/03/09 02:52:09;;;;;;;25.30;11.80;;;-3.80;53.40;;;;;;5053618;28;20355;-58
2022/03/09 02:54:34;;;;;;;24.73;12.03;;;-3.80;53.50;;;;;;5075846;28;20182;-59
2022/03/09 02:57:00;;;;;;;20.47;10.80;;;-3.80;53.60;;;;;;5070157;28;20516;-58
2022/03/09 02:59:26;;;;;;;29.10;11.90;;;-3.70;53.60;;;;;;5075785;28;20226;-59
2022/03/09 03:01:51;;;;;;;25.97;13.30;;;-3.80;53.50;;;;;;5064864;28;20300;-58
2022/03/09 03:04:18;;;;;;;19.40;11.10;;;-3.80;53.50;;;;;;5064923;28;20639;-58
2022/03/09 03:06:44;;;;;;;23.93;11.13;;;-3.80;53.50;;;;;;5064363;28;20579;-57
2022/03/09 03:09:09;;;;;;;24.10;11.50;;;-3.80;53.40;;;;;;5070441;28;20396;-58
2022/03/09 03:11:35;;;;;;;20.93;11.30;;;-3.80;53.30;;;;;;5060491;28;20436;-59
2022/03/09 03:14:00;;;;;;;25.93;12.37;;;-3.80;53.30;;;;;;5067534;28;20652;-59
2022/03/09 03:16:26;;;;;;;25.30;12.57;;;-3.90;53.20;;;;;;5089381;28;20247;-59
2022/03/09 03:18:52;;;;;;;28.10;12.20;;;-3.90;53.30;;;;;;5070944;28;20207;-58
2022/03/09 03:21:17;;;;;;;28.10;12.70;;;-4.00;53.30;;;;;;5073219;28;20181;-59
2022/03/09 03:23:43;;;;;;;26.93;11.47;;;-4.00;53.50;;;;;;5055258;28;20178;-58
2022/03/09 03:26:09;;;;;;;20.40;10.43;;;-4.10;53.60;;;;;;5077303;28;20211;-58
2022/03/09 03:28:34;;;;;;;30.93;12.13;;;-4.10;53.90;;;;;;5060633;28;20185;-56
2022/03/09 03:31:00;;;;;;;22.37;11.97;;;-4.10;54.00;;;;;;5064079;28;20258;-58
2022/03/09 03:33:26;;;;;;;29.70;12.20;;;-4.10;54.20;;;;;;5079070;28;20188;-57
2022/03/09 03:35:52;;;;;;;19.90;11.17;;;-4.20;54.20;;;;;;5079110;28;20966;-58
2022/03/09 03:38:18;;;;;;;24.10;11.60;;;-4.20;54.20;;;;;;5088348;28;20692;-57
2022/03/09 03:40:44;;;;;;;22.13;10.83;;;-4.20;54.10;;;;;;5060262;28;20483;-58
2022/03/09 03:43:14;;;;;;;20.57;10.77;;;-4.20;54.10;;;;;;5074316;28;20422;-58
2022/03/09 03:45:39;;;;;;;24.97;11.70;;;-4.20;54.10;;;;;;5075931;28;20461;-57
2022/03/09 03:48:06;;;;;;;23.63;11.53;;;-4.20;54.20;;;;;;5063491;28;20435;-58
2022/03/09 03:50:32;;;;;;;21.50;11.30;;;-4.30;54.10;;;;;;5058421;28;20916;-58
2022/03/09 03:52:57;;;;;;;24.97;11.77;;;-4.30;54.20;;;;;;5081076;28;20466;-58
2022/03/09 03:55:23;;;;;;;27.13;11.23;;;-4.30;54.50;;;;;;5064486;28;20454;-58
2022/03/09 03:57:49;;;;;;;26.57;12.30;;;-4.30;54.60;;;;;;5069894;28;20214;-58
2022/03/09 04:00:15;;;;;;;25.37;12.30;;;-4.30;54.70;;;;;;5069680;28;20184;-56
2022/03/09 04:02:44;;;;;;;24.40;10.90;;;-4.30;54.80;;;;;;5086033;28;20180;-58
2022/03/09 04:05:09;;;;;;;24.30;11.83;;;-4.30;54.80;;;;;;5076909;28;20485;-58
2022/03/09 04:07:35;;;;;;;23.60;11.47;;;-4.30;54.90;;;;;;5064124;28;20998;-57
2022/03/09 04:10:01;;;;;;;22.43;11.03;;;-4.40;54.80;;;;;;5069818;28;20175;-57
2022/03/09 04:12:26;;;;;;;21.20;10.47;;;-4.40;54.80;;;;;;5067712;28;20186;-58
2022/03/09 04:14:53;;;;;;;24.10;11.23;;;-4.50;55.30;;;;;;5074502;28;20408;-58
2022/03/09 04:17:19;;;;;;;26.00;11.30;;;-4.50;54.90;;;;;;5069071;28;20202;-58
2022/03/09 04:19:45;;;;;;;25.50;11.97;;;-4.50;55.00;;;;;;5082399;28;20420;-58
2022/03/09 04:22:10;;;;;;;23.47;11.40;;;-4.50;55.20;;;;;;5077883;28;20207;-58
2022/03/09 04:24:39;;;;;;;24.33;12.20;;;-4.50;55.30;;;;;;5078205;28;20515;-58
2022/03/09 04:27:05;;;;;;;27.47;12.40;;;-4.50;55.40;;;;;;5068654;28;20223;-58
2022/03/09 04:29:31;;;;;;;23.00;10.93;;;-4.50;55.50;;;;;;5077448;28;20450;-58
2022/03/09 04:31:56;;;;;;;31.73;10.93;;;-4.60;55.50;;;;;;5076554;28;21010;-56
2022/03/09 04:34:22;;;;;;;27.13;11.77;;;-4.70;55.50;;;;;;5076068;28;20176;-58
2022/03/09 04:36:48;;;;;;;26.40;12.80;;;-4.60;55.80;;;;;;5065482;28;20191;-57
2022/03/09 04:39:14;;;;;;;22.43;11.23;;;-4.70;56.00;;;;;;5059264;28;20206;-58
2022/03/09 04:41:39;;;;;;;28.57;11.93;;;-4.70;56.10;;;;;;5069457;28;20191;-58
2022/03/09 04:44:05;;;;;;;25.60;11.10;;;-4.60;56.10;;;;;;5065439;28;20802;-58
2022/03/09 04:46:31;;;;;;;24.40;11.30;;;-4.70;56.00;;;;;;5062917;28;20297;-58
2022/03/09 04:48:56;;;;;;;23.43;10.90;;;-4.70;55.90;;;;;;5056647;28;20188;-58
2022/03/09 04:51:22;;;;;;;28.47;10.93;;;-4.70;56.00;;;;;;5064725;28;20570;-57
2022/03/09 04:53:47;;;;;;;26.50;10.70;;;-4.70;56.10;;;;;;5061337;28;20189;-57
2022/03/09 04:56:14;;;;;;;27.33;11.17;;;-4.70;56.10;;;;;;5062695;28;20642;-58
2022/03/09 04:58:40;;;;;;;25.13;11.70;;;-4.70;56.10;;;;;;5068643;28;20586;-58
2022/03/09 05:01:06;;;;;;;22.60;11.03;;;-4.80;56.10;;;;;;5068450;28;20433;-58
2022/03/09 05:03:34;;;;;;;27.77;11.40;;;-4.80;56.20;;;;;;5071384;28;20425;-59
2022/03/09 05:06:00;;;;;;;25.37;11.10;;;-4.90;56.40;;;;;;5063849;28;20197;-57
2022/03/09 05:08:29;;;;;;;20.77;10.60;;;-4.90;56.60;;;;;;5074298;28;20408;-58
2022/03/09 05:10:55;;;;;;;22.93;9.73;;;-4.90;56.70;;;;;;5064834;28;20446;-57
2022/03/09 05:13:20;;;;;;;25.83;12.20;;;-4.90;56.70;;;;;;5064423;28;20438;-58
2022/03/09 05:15:46;;;;;;;20.87;10.37;;;-4.90;56.80;;;;;;5055298;28;20292;-57
2022/03/09 05:18:12;;;;;;;22.53;10.73;;;-4.90;56.90;;;;;;5062287;28;20230;-58
2022/03/09 05:20:37;;;;;;;22.57;11.43;;;-4.90;56.90;;;;;;5060555;28;20484;-57
2022/03/09 05:23:04;;;;;;;23.60;10.17;;;-4.90;57.00;;;;;;5061416;28;20195;-57
2022/03/09 05:25:30;;;;;;;23.70;10.27;;;-4.90;57.10;;;;;;5062948;28;20191;-58
2022/03/09 05:27:56;;;;;;;20.13;9.77;;;-4.90;57.40;;;;;;5061638;28;20406;-58
2022/03/09 05:30:22;;;;;;;18.13;10.10;;;-5.00;57.70;;;;;;5061593;28;20433;-56
2022/03/09 05:32:47;;;;;;;29.47;11.77;;;-5.00;58.10;;;;;;5064909;28;20525;-59
2022/03/09 05:35:13;;;;;;;57.73;11.70;;;-5.00;58.50;;;;;;5061925;28;20200;-58
2022/03/09 05:37:41;;;;;;;21.63;10.80;;;-5.00;58.80;;;;;;5059522;28;20297;-57
2022/03/09 05:40:09;;;;;;;22.10;11.25;;;-5.00;59.10;;;;;;5061572;28;20647;-59
2022/03/09 05:42:35;;;;;;;19.50;10.10;;;-5.10;59.10;;;;;;5059130;28;20178;-59
2022/03/09 05:45:01;;;;;;;22.00;11.27;;;-5.00;59.40;;;;;;5068691;28;20454;-62
2022/03/09 05:47:27;;;;;;;39.80;20.10;;;-5.00;59.60;;;;;;5064994;28;20437;-59
2022/03/09 05:49:53;;;;;;;42.90;17.20;;;-5.00;59.20;;;;;;5066066;28;20430;-58
2022/03/09 05:52:18;;;;;;;27.20;15.10;;;-5.00;58.70;;;;;;5067049;28;20206;-59
2022/03/09 05:54:45;;;;;;;32.57;14.87;;;-5.00;58.50;;;;;;5057911;28;20196;-59
2022/03/09 05:57:12;;;;;;;28.90;13.63;;;-5.00;58.30;;;;;;5062974;28;20302;-57
2022/03/09 05:59:38;;;;;;;20.70;11.20;;;-5.00;58.20;;;;;;5056898;28;20981;-59
2022/03/09 06:02:03;;;;;;;29.50;12.53;;;-5.00;58.20;;;;;;5068633;28;20423;-61
2022/03/09 06:04:29;;;;;;;32.63;12.17;;;-5.00;58.60;;;;;;5071141;28;20179;-58
2022/03/09 06:06:55;;;;;;;28.00;13.20;;;-5.00;58.90;;;;;;5069511;28;20459;-58
2022/03/09 06:09:21;;;;;;;22.63;11.60;;;-5.00;59.30;;;;;;5066729;28;20202;-57
2022/03/09 06:11:46;;;;;;;34.10;12.63;;;-5.00;59.40;;;;;;5072016;28;20180;-58
2022/03/09 06:14:12;;;;;;;26.80;11.47;;;-5.00;59.40;;;;;;5066667;28;20199;-61
2022/03/09 06:16:37;;;;;;;34.60;13.73;;;-5.00;59.50;;;;;;5068049;28;20803;-58
2022/03/09 06:19:03;;;;;;;29.03;13.63;;;-5.00;59.60;;;;;;5058007;28;20200;-58
2022/03/09 06:21:29;;;;;;;31.33;12.80;;;-5.00;60.00;;;;;;5064866;28;20175;-60
2022/03/09 06:23:54;;;;;;;24.10;11.73;;;-5.00;60.00;;;;;;5071849;28;20184;-60
2022/03/09 06:26:20;;;;;;;32.33;13.43;;;-5.00;59.90;;;;;;5068786;28;20224;-60
2022/03/09 06:28:46;;;;;;;26.10;13.07;;;-4.90;60.10;;;;;;5069741;28;20179;-59
2022/03/09 06:31:11;;;;;;;27.97;12.03;;;-5.00;60.80;;;;;;5070875;28;20188;-60
2022/03/09 06:33:37;;;;;;;32.63;12.97;;;-5.00;61.20;;;;;;5069908;28;20704;-58
2022/03/09 06:36:06;;;;;;;27.80;12.80;;;-5.00;61.30;;;;;;5068489;28;20271;-59
2022/03/09 06:38:31;;;;;;;30.33;13.17;;;-4.90;61.00;;;;;;5067683;28;20199;-59
2022/03/09 06:40:57;;;;;;;31.80;13.00;;;-5.00;61.10;;;;;;5069485;28;20418;-59
2022/03/09 06:43:23;;;;;;;24.63;12.43;;;-4.90;62.00;;;;;;5066410;28;20228;-58
2022/03/09 06:45:48;;;;;;;27.67;11.80;;;-4.90;61.70;;;;;;5065843;28;20690;-59
2022/03/09 06:48:14;;;;;;;24.43;11.40;;;-4.90;61.80;;;;;;5062171;28;20645;-60
2022/03/09 06:50:39;;;;;;;31.47;12.77;;;-4.80;62.10;;;;;;5062402;28;20172;-60
2022/03/09 06:53:05;;;;;;;24.03;11.70;;;-4.80;62.90;;;;;;5069864;28;20636;-60
2022/03/09 06:55:31;;;;;;;29.33;13.17;;;-4.70;62.90;;;;;;5078832;28;20195;-60
2022/03/09 06:57:57;;;;;;;29.97;13.07;;;-4.60;62.90;;;;;;5064493;28;20405;-59
2022/03/09 07:00:22;;;;;;;25.30;12.40;;;-4.50;63.10;;;;;;5078134;28;20753;-58
2022/03/09 07:02:48;;;;;;;22.77;11.97;;;-4.40;62.60;;;;;;5076111;28;20175;-59
2022/03/09 07:05:14;;;;;;;21.73;11.27;;;-4.30;62.60;;;;;;5070338;28;20196;-59
2022/03/09 07:07:40;;;;;;;21.77;11.60;;;-4.20;62.40;;;;;;5078414;28;20179;-60
2022/03/09 07:10:11;;;;;;;23.20;11.30;;;-4.10;62.30;;;;;;5069332;28;20424;-59
2022/03/09 07:12:38;;;;;;;34.30;11.10;;;-4.00;62.60;;;;;;5062981;28;20564;-58
2022/03/09 07:15:04;;;;;;;23.60;12.93;;;-3.90;62.70;;;;;;5061452;28;20993;-60
2022/03/09 07:17:29;;;;;;;22.10;10.73;;;-3.80;63.00;;;;;;5064255;28;20469;-59
2022/03/09 07:19:55;;;;;;;22.17;10.60;;;-3.70;62.80;;;;;;5068396;28;20407;-58
2022/03/09 07:22:21;;;;;;;19.60;10.97;;;-3.60;62.50;;;;;;5066994;28;20191;-58
2022/03/09 07:24:46;;;;;;;19.83;11.20;;;-3.40;62.40;;;;;;5078076;28;20175;-59
2022/03/09 07:27:12;;;;;;;23.60;11.13;;;-3.30;61.70;;;;;;5069551;28;20194;-58
2022/03/09 07:29:38;;;;;;;20.10;10.43;;;-3.20;61.70;;;;;;5066330;28;20172;-58
2022/03/09 07:32:04;;;;;;;21.57;10.80;;;-3.10;61.60;;;;;;5062065;28;20230;-58
2022/03/09 07:34:29;;;;;;;23.73;10.17;;;-3.00;60.70;;;;;;5067664;28;20177;-58
2022/03/09 07:36:58;;;;;;;20.40;9.10;;;-2.90;60.00;;;;;;5068047;28;20418;-58
2022/03/09 07:39:26;;;;;;;22.50;10.30;;;-2.80;59.80;;;;;;5069330;28;20221;-57
2022/03/09 07:41:53;;;;;;;22.13;12.13;;;-2.80;59.60;;;;;;5065524;28;20429;-57
2022/03/09 07:44:19;;;;;;;25.70;12.67;;;-2.70;59.70;;;;;;5074480;28;20426;-58
2022/03/09 07:46:45;;;;;;;24.47;12.17;;;-2.60;60.20;;;;;;5065431;28;20935;-58
2022/03/09 07:49:10;;;;;;;34.30;13.23;;;-2.50;60.10;;;;;;5070907;28;20178;-58
2022/03/09 07:51:36;;;;;;;23.97;12.53;;;-2.40;59.70;;;;;;5073614;28;20233;-58
2022/03/09 07:54:02;;;;;;;30.93;12.20;;;-2.30;59.30;;;;;;5079308;28;20238;-56
2022/03/09 07:56:27;;;;;;;28.47;12.17;;;-2.20;59.40;;;;;;5080288;28;20564;-57
2022/03/09 07:58:53;;;;;;;25.43;12.37;;;-2.10;59.20;;;;;;5069073;28;20461;-58
2022/03/09 08:01:19;;;;;;;47.87;15.23;;;-2.00;58.90;;;;;;5065297;28;20168;-57
2022/03/09 08:03:44;;;;;;;32.00;15.30;;;-1.90;58.50;;;;;;5061744;28;20548;-60
2022/03/09 08:06:10;;;;;;;34.30;14.53;;;-1.80;58.30;;;;;;5068115;28;20235;-58
2022/03/09 08:08:36;;;;;;;36.77;14.73;;;-1.70;58.50;;;;;;5063627;28;20267;-60
2022/03/09 08:11:02;;;;;;;30.30;14.40;;;-1.60;58.60;;;;;;5066935;28;20177;-60
2022/03/09 08:13:27;;;;;;;25.27;12.97;;;-1.50;58.40;;;;;;5069026;28;20205;-61
2022/03/09 08:15:53;;;;;;;43.90;14.97;;;-1.40;58.10;;;;;;5074379;28;20460;-59
2022/03/09 08:18:19;;;;;;;28.50;13.50;;;-1.20;57.80;;;;;;5050980;28;20236;-61
2022/03/09 08:20:44;;;;;;;37.87;14.20;;;-1.10;57.40;;;;;;5064740;28;20831;-59
2022/03/09 08:23:10;;;;;;;32.07;13.97;;;-1.00;56.90;;;;;;5068584;28;20200;-62
2022/03/09 08:25:36;;;;;;;29.37;14.00;;;-0.90;56.70;;;;;;5081587;28;20188;-61
2022/03/09 08:28:02;;;;;;;31.17;13.60;;;-0.80;56.40;;;;;;5053372;28;20177;-61
2022/03/09 08:30:28;;;;;;;36.23;14.03;;;-0.70;56.30;;;;;;5049600;28;20374;-61
2022/03/09 08:32:53;;;;;;;33.37;16.20;;;-0.60;55.60;;;;;;5054537;28;20239;-60
2022/03/09 08:35:19;;;;;;;32.30;13.27;;;-0.50;55.50;;;;;;5069388;28;20494;-61
2022/03/09 08:37:44;;;;;;;30.53;12.30;;;-0.40;55.40;;;;;;5057567;28;20227;-61
2022/03/09 08:40:11;;;;;;;21.40;11.10;;;-0.20;55.60;;;;;;5070376;28;20206;-62
2022/03/09 08:42:37;;;;;;;25.67;12.00;;;-0.10;55.40;;;;;;5069502;28;20183;-62
2022/03/09 08:45:03;;;;;;;25.13;12.50;;;0.00;55.00;;;;;;5058866;28;20489;-62
2022/03/09 08:47:29;;;;;;;21.83;11.50;;;0.10;54.90;;;;;;5068784;28;20500;-61
2022/03/09 08:49:57;;;;;;;23.03;11.93;;;0.20;55.20;;;;;;5069265;28;20926;-61
2022/03/09 08:52:23;;;;;;;25.87;12.77;;;0.40;55.50;;;;;;5075782;28;20180;-62
2022/03/09 08:54:55;;;;;;;22.53;12.13;;;0.50;55.50;;;;;;5071435;28;20428;-62
2022/03/09 08:57:21;;;;;;;28.50;11.53;;;0.70;55.00;;;;;;5069605;28;20466;-62
2022/03/09 08:59:47;;;;;;;24.23;11.03;;;0.80;54.40;;;;;;5061078;28;20466;-63
2022/03/09 09:02:12;;;;;;;36.27;12.40;;;1.00;53.80;;;;;;5072076;28;20435;-61
2022/03/09 09:04:38;;;;;;;25.20;11.83;;;1.10;53.30;;;;;;5066258;28;20230;-62
2022/03/09 09:07:04;;;;;;;31.33;12.73;;;1.30;53.10;;;;;;5074886;28;20196;-61
2022/03/09 09:09:29;;;;;;;21.60;11.60;;;1.40;52.30;;;;;;5077011;28;20673;-62
2022/03/09 09:11:55;;;;;;;21.80;11.77;;;1.60;51.70;;;;;;5082872;28;20259;-62
2022/03/09 09:14:21;;;;;;;22.13;11.87;;;1.70;51.70;;;;;;5069415;28;20204;-61
2022/03/09 09:16:47;;;;;;;22.87;12.50;;;1.90;51.50;;;;;;5071602;28;20208;-62
2022/03/09 09:19:13;;;;;;;23.87;13.33;;;2.10;51.40;;;;;;5071423;28;20196;-61
2022/03/09 09:21:39;;;;;;;23.30;13.00;;;2.20;50.70;;;;;;5070617;28;20841;-62
2022/03/09 09:24:05;;;;;;;33.17;15.10;;;2.40;50.30;;;;;;5087597;28;20182;-62
2022/03/09 09:26:31;;;;;;;31.30;13.43;;;2.50;49.90;;;;;;5071374;28;20274;-62
2022/03/09 09:28:56;;;;;;;32.77;15.17;;;2.70;49.50;;;;;;5069773;28;20479;-63
2022/03/09 09:31:22;;;;;;;35.57;16.80;;;2.90;49.70;;;;;;5074157;28;20631;-63
2022/03/09 09:33:48;;;;;;;35.93;15.13;;;3.10;49.40;;;;;;5071495;28;20181;-63
2022/03/09 09:36:14;;;;;;;40.60;16.70;;;3.30;49.40;;;;;;5067047;28;20207;-62
2022/03/09 09:38:39;;;;;;;32.23;15.93;;;3.50;49.20;;;;;;5060681;28;20460;-62
2022/03/09 09:41:08;;;;;;;42.20;18.10;;;3.70;48.70;;;;;;5071175;28;20224;-62
2022/03/09 09:43:34;;;;;;;32.30;16.70;;;4.00;48.90;;;;;;5060962;28;20220;-62
2022/03/09 09:46:00;;;;;;;37.17;17.10;;;4.20;48.80;;;;;;5070232;28;20456;-62
2022/03/09 09:48:25;;;;;;;39.13;18.80;;;4.40;48.00;;;;;;5070323;28;20202;-62
2022/03/09 09:50:54;;;;;;;41.10;20.30;;;4.60;47.90;;;;;;5070001;28;20171;-62
2022/03/09 09:53:22;;;;;;;39.53;19.30;;;4.90;47.90;;;;;;5058259;28;20685;-62
2022/03/09 09:55:47;;;;;;;40.33;19.73;;;5.10;47.20;;;;;;5069311;28;20880;-60
2022/03/09 09:58:18;;;;;;;41.63;19.73;;;5.30;47.20;;;;;;5062525;28;20524;-63
2022/03/09 10:00:44;;;;;;;48.00;21.20;;;5.50;47.00;;;;;;5058791;28;20239;-63
2022/03/09 10:03:11;;;;;;;45.80;21.60;;;5.70;46.40;;;;;;5065031;28;20798;-63
2022/03/09 10:05:37;;;;;;;38.53;19.60;;;5.90;45.70;;;;;;5066471;28;20445;-63
2022/03/09 10:08:06;;;;;;;45.00;21.10;;;6.10;45.80;;;;;;5067458;28;20424;-62
2022/03/09 10:10:38;;;;;;;40.37;20.67;;;6.30;45.70;;;;;;5070786;28;20238;-62
2022/03/09 10:13:21;;;;;;;56.93;21.00;;;6.50;45.40;;;;;;5064875;28;20846;-62
2022/03/09 10:16:07;;;;;;;42.13;21.20;;;6.70;44.70;;;;;;5069651;28;20453;-62
2022/03/09 10:18:33;;;;;;;45.20;19.67;;;7.00;45.10;;;;;;5074209;28;20468;-63
2022/03/09 10:21:13;;;;;;;35.63;19.17;;;7.20;45.00;;;;;;5075002;28;20432;-63
2022/03/09 10:23:53;;;;;;;37.10;17.90;;;7.40;44.40;;;;;;5076309;28;20459;-63
2022/03/09 10:26:19;;;;;;;41.07;18.77;;;7.70;43.70;;;;;;5069622;28;20818;-62
2022/03/09 10:29:02;;;;;;;39.83;17.73;;;7.90;42.80;;;;;;5069132;28;20425;-62
2022/03/09 10:31:31;;;;;;;32.23;16.80;;;8.20;43.10;;;;;;5067190;28;20589;-62
2022/03/09 10:34:24;;;;;;;32.07;17.70;;;8.50;42.50;;;;;;5067529;28;20519;-61
2022/03/09 10:36:54;;;;;;;30.83;17.33;;;8.70;41.60;;;;;;5061328;28;20440;-61
2022/03/09 10:39:21;;;;;;;35.43;17.27;;;8.80;41.20;;;;;;5068610;28;20551;-61
2022/03/09 10:41:47;;;;;;;35.83;17.47;;;9.00;41.50;;;;;;5058639;28;20429;-62
2022/03/09 10:44:13;;;;;;;36.40;17.30;;;9.20;41.60;;;;;;5061552;28;20835;-62
2022/03/09 10:46:48;;;;;;;32.80;16.77;;;9.30;41.00;;;;;;5056548;28;20691;-62
2022/03/09 10:49:16;;;;;;;35.10;16.10;;;9.50;41.30;;;;;;5054943;28;20421;-62
2022/03/09 10:51:52;;;;;;;31.27;16.40;;;9.70;41.50;;;;;;5059776;28;20848;-63
2022/03/09 10:54:27;;;;;;;29.50;15.87;;;9.90;41.60;;;;;;5059759;28;21162;-62
2022/03/09 10:57:10;;;;;;;31.60;16.50;;;10.10;39.70;;;;;;5063471;28;21023;-63
2022/03/09 10:59:53;;;;;;;30.00;15.10;;;10.20;38.70;;;;;;5062674;28;20957;-62
2022/03/09 11:02:21;;;;;;;33.60;15.43;;;10.30;38.80;;;;;;5059750;28;20422;-62
2022/03/09 11:05:06;;;;;;;35.77;17.17;;;10.50;39.00;;;;;;5059990;28;20421;-62
2022/03/09 11:07:33;;;;;;;31.53;16.27;;;10.70;38.80;;;;;;5061146;28;20493;-63
2022/03/09 11:09:59;;;;;;;31.93;16.37;;;10.90;37.70;;;;;;5059452;28;20421;-62
2022/03/09 11:12:25;;;;;;;32.70;17.10;;;11.00;37.40;;;;;;5063929;28;20865;-62
2022/03/09 11:14:51;;;;;;;32.10;15.07;;;11.10;37.60;;;;;;5059399;28;20436;-62
2022/03/09 11:17:22;;;;;;;26.90;14.17;;;11.10;37.40;;;;;;5059528;28;20174;-62
2022/03/09 11:19:48;;;;;;;33.20;15.50;;;11.30;36.70;;;;;;5060506;28;20376;-62
2022/03/09 11:22:14;;;;;;;26.83;15.40;;;11.40;36.30;;;;;;5063667;28;20437;-62
2022/03/09 11:24:40;;;;;;;29.73;15.60;;;11.50;36.60;;;;;;5055996;28;20426;-61
2022/03/09 11:27:07;;;;;;;24.27;13.77;;;11.70;36.50;;;;;;5056561;28;20725;-62
2022/03/09 11:29:35;;;;;;;25.67;14.83;;;11.90;35.20;;;;;;5064743;28;20177;-62
2022/03/09 11:32:06;;;;;;;29.60;14.90;;;12.10;35.00;;;;;;5061497;28;20645;-63
2022/03/09 11:34:47;;;;;;;24.53;13.93;;;12.40;34.90;;;;;;5058065;28;20468;-62
2022/03/09 11:37:33;;;;;;;28.80;15.10;;;12.90;34.90;;;;;;5056348;28;20429;-63
2022/03/09 11:40:05;;;;;;;43.17;15.20;;;13.30;33.70;;;;;;5062984;28;20432;-62
2022/03/09 11:42:50;;;;;;;28.07;15.83;;;13.90;33.10;;;;;;5067759;28;20435;-62
2022/03/09 11:45:22;;;;;;;28.03;15.30;;;14.40;32.30;;;;;;5061371;28;20464;-62
2022/03/09 11:48:04;;;;;;;27.70;15.40;;;14.90;32.00;;;;;;5063601;28;20506;-62
2022/03/09 11:50:46;;;;;;;28.90;15.80;;;15.40;31.70;;;;;;5062019;28;20428;-63
2022/03/09 11:53:13;;;;;;;25.77;15.83;;;15.80;29.80;;;;;;5068129;28;20519;-61
2022/03/09 11:55:39;;;;;;;25.80;16.27;;;16.10;30.10;;;;;;5065001;28;20518;-61
2022/03/09 11:58:09;;;;;;;28.57;17.07;;;16.40;30.10;;;;;;5059367;28;20570;-61
2022/03/09 12:00:37;;;;;;;24.60;14.90;;;16.80;30.50;;;;;;5057228;28;20867;-62
2022/03/09 12:03:03;;;;;;;27.93;14.77;;;17.10;29.60;;;;;;5061326;28;20495;-63
2022/03/09 12:05:29;;;;;;;26.37;14.83;;;17.30;29.10;;;;;;5063874;28;20525;-61
2022/03/09 12:07:54;;;;;;;21.30;13.97;;;17.40;28.70;;;;;;5068959;28;20933;-60
2022/03/09 12:10:41;;;;;;;26.03;14.90;;;17.60;28.90;;;;;;5119612;22;20216;-59
2022/03/09 12:13:20;;;;;;;22.53;11.27;;;17.60;29.10;;;;;;5106433;27;20174;-60
2022/03/09 12:16:05;;;;;;;28.00;15.30;;;17.60;34.50;;;;;;5105120;28;20420;-59
2022/03/09 12:18:43;;;;;;;25.03;14.13;;;17.70;31.50;;;;;;5106994;28;20981;-61
2022/03/09 12:21:11;;;;;;;23.03;13.10;;;17.60;28.60;;;;;;5088381;28;20579;-60
2022/03/09 12:24:08;;;;;;;23.63;14.23;;;17.60;30.60;;;;;;5087263;28;20687;-62
2022/03/09 12:26:39;;;;;;;22.30;13.93;;;17.50;28.80;;;;;;5087329;28;20462;-60
2022/03/09 12:29:34;;;;;;;21.03;13.50;;;17.50;28.70;;;;;;5086230;28;20435;-63
2022/03/09 12:32:02;;;;;;;23.00;14.00;;;17.50;28.40;;;;;;5080716;28;20469;-62